Achat — 9HA3568 — position and weather

sailwx.info

Track history (hours):
 
Tides and Currents Weather Stations Pressure Air Temp Water Temp Dewpoint Dewpoint Depression Visibility Wind Speed Wind Dir Waves Ship Positions

Achat

Last reported at 2018-Feb-06 10:10 UTC. Time now 2018-Feb-22 14:47 UTC.
Position N 01°15' E 104°01'.
Warning: this ship's position is 16 days out of date.

Length 190 m; draft 12.6 m.

Type: Cargo ship. MMSI: 229741000.

Date/timePositionNaut miles runAvg speedWind from/ knotsBaromVisibWave heightAir tempDewpointWater temp
2018-Feb-06 10:10N 01°15' E 104°01'1 8.3
2018-Feb-06 10:00N 01°16' E 103°60'2 1.4
2018-Feb-06 08:36N 01°17' E 103°58'0 0.2
2018-Feb-06 08:18N 01°17' E 103°58'0 0.1
2018-Feb-06 07:59N 01°17' E 103°58'0 0.1
2018-Feb-06 07:19N 01°17' E 103°58'0 0.0
2018-Feb-06 06:56N 01°17' E 103°58'0 0.1
2018-Feb-06 06:28N 01°17' E 103°58'0 0.1
2018-Feb-06 05:59N 01°17' E 103°58'0 0.1
2018-Feb-06 05:22N 01°17' E 103°58'0 0.0
2018-Feb-06 04:57N 01°17' E 103°58'0 0.0
2018-Feb-06 04:25N 01°17' E 103°58'0 0.1
2018-Feb-06 03:55N 01°17' E 103°58'0 0.0
2018-Feb-06 03:28N 01°17' E 103°58'0 0.0
2018-Feb-06 03:00N 01°17' E 103°58'0 0.0
2018-Feb-06 02:29N 01°17' E 103°58'0 0.0
2018-Feb-06 01:54N 01°17' E 103°58'0 0.0
2018-Feb-06 01:30N 01°17' E 103°58'0 0.0
2018-Feb-06 00:58N 01°17' E 103°58'0 0.0
2018-Feb-06 00:29N 01°17' E 103°58'0 0.0
2018-Feb-05 23:36N 01°17' E 103°58'0 0.1
2018-Feb-05 23:30N 01°17' E 103°58'0 0.0
2018-Feb-05 22:56N 01°17' E 103°58'0 0.0
2018-Feb-05 22:29N 01°17' E 103°58'0 0.0
2018-Feb-05 21:57N 01°17' E 103°58'0 0.0
2018-Feb-05 21:30N 01°17' E 103°58'0 0.0
2018-Feb-05 20:59N 01°17' E 103°58'0 0.0
2018-Feb-05 20:26N 01°17' E 103°58'0 0.0
2018-Feb-05 19:59N 01°17' E 103°58'0 0.0
2018-Feb-05 19:29N 01°17' E 103°58'0 0.0
2018-Feb-05 18:58N 01°17' E 103°58'0 0.0
2018-Feb-05 18:30N 01°17' E 103°58'0 0.0
2018-Feb-05 17:58N 01°17' E 103°58'0 0.3
2018-Feb-05 17:30N 01°17' E 103°58'2 3.2
2018-Feb-05 17:00N 01°16' E 103°57'2 4.2
2018-Feb-05 16:28N 01°14' E 103°57'4 8.5
2018-Feb-05 16:00N 01°12' E 103°53'5 8.6
2018-Feb-05 15:28N 01°10' E 103°49'4 8.0
2018-Feb-05 14:59N 01°08' E 103°46'610.2
2018-Feb-05 14:24N 01°04' E 103°41'4 9.3
2018-Feb-05 14:00N 01°03' E 103°38'5 9.7
2018-Feb-05 13:30N 01°06' E 103°34'5 9.5
2018-Feb-05 12:58N 01°08' E 103°29'5 9.5
2018-Feb-05 12:28N 01°11' E 103°25'4 9.1
2018-Feb-05 11:59N 01°13' E 103°22'5 9.0
2018-Feb-05 11:26N 01°17' E 103°18'  
Track history (hours):
 
Tides and Currents Weather Stations Pressure Air Temp Water Temp Dewpoint Dewpoint Depression Visibility Wind Speed Wind Dir Waves Ship Positions

Achat

Last reported at 2018-Feb-06 10:10 UTC. Time now 2018-Feb-22 14:47 UTC.
Position N 01°15' E 104°01'.
Warning: this ship's position is 16 days out of date.

Length 190 m; draft 12.6 m.

Type: Cargo ship. MMSI: 229741000.

Date/timePositionNaut miles runAvg speedWind from/ knotsBaromVisibWave heightAir tempDewpointWater temp
2018-Feb-06 10:10N 01°15' E 104°01'1 8.3
2018-Feb-06 10:00N 01°16' E 103°60'2 1.4
2018-Feb-06 08:36N 01°17' E 103°58'0 0.2
2018-Feb-06 08:18N 01°17' E 103°58'0 0.1
2018-Feb-06 07:59N 01°17' E 103°58'0 0.1
2018-Feb-06 07:19N 01°17' E 103°58'0 0.0
2018-Feb-06 06:56N 01°17' E 103°58'0 0.1
2018-Feb-06 06:28N 01°17' E 103°58'0 0.1
2018-Feb-06 05:59N 01°17' E 103°58'0 0.1
2018-Feb-06 05:22N 01°17' E 103°58'0 0.0
2018-Feb-06 04:57N 01°17' E 103°58'0 0.0
2018-Feb-06 04:25N 01°17' E 103°58'0 0.1
2018-Feb-06 03:55N 01°17' E 103°58'0 0.0
2018-Feb-06 03:28N 01°17' E 103°58'0 0.0
2018-Feb-06 03:00N 01°17' E 103°58'0 0.0
2018-Feb-06 02:29N 01°17' E 103°58'0 0.0
2018-Feb-06 01:54N 01°17' E 103°58'0 0.0
2018-Feb-06 01:30N 01°17' E 103°58'0 0.0
2018-Feb-06 00:58N 01°17' E 103°58'0 0.0
2018-Feb-06 00:29N 01°17' E 103°58'0 0.0
2018-Feb-05 23:36N 01°17' E 103°58'0 0.1
2018-Feb-05 23:30N 01°17' E 103°58'0 0.0
2018-Feb-05 22:56N 01°17' E 103°58'0 0.0
2018-Feb-05 22:29N 01°17' E 103°58'0 0.0
2018-Feb-05 21:57N 01°17' E 103°58'0 0.0
2018-Feb-05 21:30N 01°17' E 103°58'0 0.0
2018-Feb-05 20:59N 01°17' E 103°58'0 0.0
2018-Feb-05 20:26N 01°17' E 103°58'0 0.0
2018-Feb-05 19:59N 01°17' E 103°58'0 0.0
2018-Feb-05 19:29N 01°17' E 103°58'0 0.0
2018-Feb-05 18:58N 01°17' E 103°58'0 0.0
2018-Feb-05 18:30N 01°17' E 103°58'0 0.0
2018-Feb-05 17:58N 01°17' E 103°58'0 0.3
2018-Feb-05 17:30N 01°17' E 103°58'2 3.2
2018-Feb-05 17:00N 01°16' E 103°57'2 4.2
2018-Feb-05 16:28N 01°14' E 103°57'4 8.5
2018-Feb-05 16:00N 01°12' E 103°53'5 8.6
2018-Feb-05 15:28N 01°10' E 103°49'4 8.0
2018-Feb-05 14:59N 01°08' E 103°46'610.2
2018-Feb-05 14:24N 01°04' E 103°41'4 9.3
2018-Feb-05 14:00N 01°03' E 103°38'5 9.7
2018-Feb-05 13:30N 01°06' E 103°34'5 9.5
2018-Feb-05 12:58N 01°08' E 103°29'5 9.5
2018-Feb-05 12:28N 01°11' E 103°25'4 9.1
2018-Feb-05 11:59N 01°13' E 103°22'5 9.0
2018-Feb-05 11:26N 01°17' E 103°18'  

Dump ship's entire track history